Time;durP1;ratioP1;P1;durP2;ratioP2;P2;SDS_P1;SDS_P2;PMS_P1;PMS_P2;Temp;Humidity;BMP_temperature;BMP_pressure;BME280_temperature;BME280_humidity;BME280_pressure;Samples;Min_cycle;Max_cycle;Signal;HPM_P1;HPM_P2
2023/04/14 00:00:36;;;;;;;7.70;3.60;;;7.20;85.00;;;;;;4975490;28;20863;-72
2023/04/14 00:03:02;;;;;;;8.00;3.53;;;7.20;85.20;;;;;;4975832;28;20262;-74
2023/04/14 00:05:31;;;;;;;5.77;3.47;;;7.20;85.00;;;;;;4976122;28;20717;-71
2023/04/14 00:07:56;;;;;;;7.10;2.90;;;7.20;85.00;;;;;;4975585;28;20195;-70
2023/04/14 00:10:23;;;;;;;7.80;3.20;;;7.30;85.00;;;;;;4976284;28;20475;-74
2023/04/14 00:12:48;;;;;;;7.30;3.57;;;7.30;84.60;;;;;;4975209;28;20903;-72
2023/04/14 00:15:14;;;;;;;5.73;3.17;;;7.20;84.30;;;;;;4974022;28;20621;-75
2023/04/14 00:17:40;;;;;;;7.47;3.93;;;7.20;84.40;;;;;;4975822;28;20182;-71
2023/04/14 00:20:07;;;;;;;5.60;3.30;;;7.30;84.40;;;;;;4976411;28;20207;-71
2023/04/14 00:22:32;;;;;;;7.93;3.20;;;7.20;84.30;;;;;;4986169;28;20188;-71
2023/04/14 00:24:58;;;;;;;8.03;3.10;;;7.20;84.30;;;;;;4976480;28;20474;-71
2023/04/14 00:27:24;;;;;;;4.83;3.47;;;7.20;84.10;;;;;;4981446;28;20186;-72
2023/04/14 00:29:50;;;;;;;9.90;2.90;;;7.20;84.00;;;;;;4988271;28;20183;-74
2023/04/14 00:32:16;;;;;;;7.67;3.13;;;7.20;83.60;;;;;;4979533;28;20725;-73
2023/04/14 00:34:41;;;;;;;4.00;2.53;;;7.20;83.00;;;;;;4976895;28;20486;-72
2023/04/14 00:37:07;;;;;;;8.23;3.10;;;7.30;82.80;;;;;;4976649;28;20430;-73
2023/04/14 00:39:33;;;;;;;5.10;2.40;;;7.30;82.20;;;;;;4987702;28;20195;-71
2023/04/14 00:42:02;;;;;;;4.77;2.47;;;7.30;82.10;;;;;;4983002;28;20465;-73
2023/04/14 00:44:28;;;;;;;7.73;2.87;;;7.30;82.40;;;;;;4984648;28;20198;-73
2023/04/14 00:46:54;;;;;;;6.30;3.00;;;7.20;82.70;;;;;;4969993;28;20457;-72
2023/04/14 00:49:20;;;;;;;3.50;2.67;;;7.20;83.00;;;;;;4984987;28;20190;-72
2023/04/14 00:51:46;;;;;;;7.20;3.00;;;7.30;83.10;;;;;;4981139;28;20441;-72
2023/04/14 00:54:14;;;;;;;4.90;3.20;;;7.20;83.30;;;;;;4980168;28;20290;-73
2023/04/14 00:56:40;;;;;;;8.90;3.20;;;7.20;83.60;;;;;;4969551;28;20457;-73
2023/04/14 00:59:06;;;;;;;11.10;3.67;;;7.20;83.40;;;;;;4980974;28;20418;-72
2023/04/14 01:01:36;;;;;;;5.83;2.83;;;7.20;83.00;;;;;;4977620;28;20422;-71
2023/04/14 01:04:02;;;;;;;10.80;2.73;;;7.20;82.80;;;;;;4975696;28;20234;-74
2023/04/14 01:06:28;;;;;;;6.43;2.80;;;7.10;82.50;;;;;;4974393;28;20495;-72
2023/04/14 01:08:55;;;;;;;9.13;2.90;;;7.00;82.50;;;;;;4983287;28;20191;-71
2023/04/14 01:11:44;;;;;;;5.23;3.07;;;7.00;82.80;;;;;;4980095;28;20592;-72
2023/04/14 01:14:16;;;;;;;8.87;2.90;;;7.00;83.30;;;;;;4981331;28;20462;-71
2023/04/14 01:16:44;;;;;;;10.73;3.10;;;7.00;83.10;;;;;;4984772;28;20493;-72
2023/04/14 01:19:09;;;;;;;11.30;2.77;;;7.00;83.10;;;;;;4990689;28;20449;-72
2023/04/14 01:21:40;;;;;;;6.30;3.03;;;6.90;83.40;;;;;;4989083;28;20440;-73
2023/04/14 01:24:43;;;;;;;5.77;2.87;;;6.90;83.40;;;;;;4988615;28;20205;-72
2023/04/14 01:27:36;;;;;;;9.20;2.63;;;6.80;83.60;;;;;;4979260;28;20445;-73
2023/04/14 01:30:22;;;;;;;9.93;3.20;;;6.80;83.70;;;;;;4989053;28;20418;-71
2023/04/14 01:32:52;;;;;;;6.97;2.50;;;6.80;83.70;;;;;;4975505;28;20430;-73
2023/04/14 01:35:24;;;;;;;5.27;2.50;;;6.70;83.70;;;;;;4971802;28;21285;-73
2023/04/14 01:37:53;;;;;;;7.77;3.17;;;6.70;83.70;;;;;;4970672;28;20443;-72
2023/04/14 01:40:19;;;;;;;7.30;3.03;;;6.70;83.80;;;;;;4988916;28;20794;-71
2023/04/14 01:42:51;;;;;;;7.13;3.00;;;6.60;83.80;;;;;;4991925;28;20426;-73
2023/04/14 01:45:26;;;;;;;6.73;3.33;;;6.60;84.00;;;;;;4980988;28;20550;-73
2023/04/14 01:47:53;;;;;;;10.37;3.40;;;6.60;84.30;;;;;;4973027;28;20489;-74
2023/04/14 01:50:20;;;;;;;5.20;2.97;;;6.50;84.30;;;;;;4978255;28;20422;-73
2023/04/14 01:52:50;;;;;;;8.67;3.87;;;6.40;84.60;;;;;;4973499;28;20481;-73
2023/04/14 01:55:18;;;;;;;8.57;3.27;;;6.40;85.00;;;;;;4975290;28;20477;-73
2023/04/14 01:57:47;;;;;;;4.53;2.73;;;6.30;85.70;;;;;;4976401;28;20432;-73
2023/04/14 02:00:15;;;;;;;8.43;3.40;;;6.20;86.30;;;;;;4978972;28;20497;-73
2023/04/14 02:02:42;;;;;;;6.00;3.27;;;6.20;86.80;;;;;;4980847;28;20827;-72
2023/04/14 02:05:09;;;;;;;11.90;4.20;;;6.10;87.10;;;;;;4973555;28;20469;-73
2023/04/14 02:07:35;;;;;;;11.20;4.07;;;6.10;87.40;;;;;;4974827;28;20852;-72
2023/04/14 02:10:03;;;;;;;7.27;3.47;;;6.00;87.70;;;;;;4971752;28;20427;-72
2023/04/14 02:12:30;;;;;;;11.23;3.60;;;6.00;87.80;;;;;;4976655;28;20437;-70
2023/04/14 02:14:58;;;;;;;8.63;3.57;;;6.00;88.00;;;;;;4971223;28;20482;-73
2023/04/14 02:17:24;;;;;;;10.60;3.80;;;5.80;88.10;;;;;;4978387;28;20452;-73
2023/04/14 02:19:52;;;;;;;10.30;3.50;;;5.80;88.30;;;;;;4972470;28;20423;-73
2023/04/14 02:22:18;;;;;;;5.93;3.00;;;5.70;88.40;;;;;;4975216;28;20426;-73
2023/04/14 02:24:46;;;;;;;9.13;3.10;;;5.70;88.40;;;;;;4972137;28;20758;-73
2023/04/14 02:27:32;;;;;;;5.17;3.03;;;5.60;88.30;;;;;;4982427;28;20433;-73
2023/04/14 02:30:02;;;;;;;12.47;3.00;;;5.60;88.30;;;;;;4985201;28;20499;-72
2023/04/14 02:32:29;;;;;;;6.43;3.00;;;5.60;88.40;;;;;;4974293;28;20449;-73
2023/04/14 02:35:07;;;;;;;7.50;3.10;;;5.50;88.30;;;;;;4970277;28;20478;-72
2023/04/14 02:37:36;;;;;;;12.13;2.77;;;5.50;88.40;;;;;;4976959;28;20442;-72
2023/04/14 02:40:26;;;;;;;5.83;2.60;;;5.40;88.40;;;;;;4971472;28;21227;-72
2023/04/14 02:42:58;;;;;;;9.77;3.60;;;5.50;88.40;;;;;;4969092;28;20469;-73
2023/04/14 02:45:29;;;;;;;8.63;3.20;;;5.40;88.40;;;;;;4971808;28;20956;-73
2023/04/14 02:48:01;;;;;;;6.33;2.67;;;5.40;88.30;;;;;;4977962;28;20513;-73
2023/04/14 02:50:28;;;;;;;6.73;2.63;;;5.30;88.60;;;;;;4972440;28;20446;-72
2023/04/14 02:52:55;;;;;;;5.73;2.77;;;5.30;89.00;;;;;;4983166;28;20572;-73
2023/04/14 02:55:22;;;;;;;14.00;2.73;;;5.40;89.20;;;;;;4970015;28;20517;-73
2023/04/14 02:57:49;;;;;;;7.40;3.23;;;5.40;89.20;;;;;;4974386;28;20462;-72
2023/04/14 03:00:15;;;;;;;8.63;3.40;;;5.40;89.00;;;;;;4973479;28;20792;-73
2023/04/14 03:02:45;;;;;;;6.47;3.20;;;5.30;89.00;;;;;;4972168;28;20453;-71
2023/04/14 03:05:11;;;;;;;7.80;3.00;;;5.30;89.20;;;;;;4971369;28;20470;-72
2023/04/14 03:07:39;;;;;;;9.63;2.87;;;5.30;89.30;;;;;;4978494;28;20434;-72
2023/04/14 03:10:07;;;;;;;7.30;2.70;;;5.30;89.00;;;;;;4977413;28;20429;-72
2023/04/14 03:12:33;;;;;;;7.40;2.83;;;5.20;88.70;;;;;;4974206;28;20422;-74
2023/04/14 03:15:00;;;;;;;9.33;3.37;;;5.20;88.60;;;;;;4972408;28;20520;-71
2023/04/14 03:17:27;;;;;;;11.60;3.03;;;5.20;88.90;;;;;;4974167;28;20438;-74
2023/04/14 03:19:53;;;;;;;4.33;2.60;;;5.20;88.90;;;;;;4981587;28;20526;-72
2023/04/14 03:22:20;;;;;;;12.30;3.40;;;5.20;89.00;;;;;;4982089;28;21009;-72
2023/04/14 03:24:46;;;;;;;9.13;2.90;;;5.20;88.90;;;;;;4983631;28;20502;-71
2023/04/14 03:27:21;;;;;;;7.83;3.30;;;5.10;89.00;;;;;;4982484;28;20473;-73
2023/04/14 03:29:51;;;;;;;8.27;2.97;;;5.10;89.20;;;;;;4978314;28;20658;-74
2023/04/14 03:32:18;;;;;;;5.67;3.10;;;5.10;89.20;;;;;;4988846;28;20434;-74
2023/04/14 03:34:48;;;;;;;8.30;3.13;;;5.10;89.30;;;;;;4976035;28;21004;-74
2023/04/14 03:37:16;;;;;;;7.27;2.60;;;5.10;89.60;;;;;;4975377;28;20427;-73
2023/04/14 03:39:44;;;;;;;7.70;2.60;;;5.10;89.60;;;;;;4980297;28;20449;-73
2023/04/14 03:42:11;;;;;;;7.33;3.30;;;5.10;89.90;;;;;;4985535;28;20435;-72
2023/04/14 03:44:38;;;;;;;8.70;2.90;;;5.10;89.90;;;;;;4978984;28;20466;-74
2023/04/14 03:47:06;;;;;;;12.30;3.47;;;5.10;89.90;;;;;;4975126;28;20465;-72
2023/04/14 03:49:36;;;;;;;6.40;3.10;;;5.10;89.70;;;;;;4982363;28;20944;-72
2023/04/14 03:52:09;;;;;;;9.43;3.60;;;5.10;89.50;;;;;;4977597;28;20438;-72
2023/04/14 03:54:37;;;;;;;6.90;3.03;;;5.10;89.60;;;;;;4981057;28;20599;-72
2023/04/14 03:57:05;;;;;;;6.43;3.00;;;5.10;89.30;;;;;;4974729;28;20442;-72
2023/04/14 03:59:34;;;;;;;10.57;3.23;;;5.10;89.30;;;;;;4976087;28;20798;-72
2023/04/14 04:02:01;;;;;;;8.40;3.13;;;5.00;89.30;;;;;;4974908;28;20432;-72
2023/04/14 04:04:29;;;;;;;10.23;3.23;;;5.10;89.50;;;;;;4977113;28;20780;-72
2023/04/14 04:06:56;;;;;;;11.23;3.60;;;5.00;89.30;;;;;;4972180;28;20473;-73
2023/04/14 04:09:23;;;;;;;7.50;2.53;;;5.00;89.30;;;;;;4978568;28;20505;-72
2023/04/14 04:11:51;;;;;;;7.30;3.13;;;4.90;89.50;;;;;;4974530;28;20430;-72
2023/04/14 04:14:19;;;;;;;5.33;3.00;;;4.80;89.70;;;;;;4979872;28;20476;-72
2023/04/14 04:16:50;;;;;;;5.67;3.27;;;4.80;89.90;;;;;;4975743;28;20464;-72
2023/04/14 04:19:21;;;;;;;8.83;3.50;;;4.80;90.10;;;;;;4975944;28;20913;-72
2023/04/14 04:21:50;;;;;;;6.60;3.13;;;4.80;90.00;;;;;;4974421;28;20440;-72
2023/04/14 04:24:18;;;;;;;15.57;3.43;;;4.70;90.10;;;;;;4973330;28;20437;-72
2023/04/14 04:26:43;;;;;;;5.10;2.90;;;4.80;90.20;;;;;;4973572;28;20466;-73
2023/04/14 04:29:09;;;;;;;6.80;3.50;;;4.70;90.10;;;;;;4979504;28;20496;-71
2023/04/14 04:31:35;;;;;;;11.23;4.40;;;4.70;89.90;;;;;;4973323;28;20677;-73
2023/04/14 04:34:04;;;;;;;9.47;4.00;;;4.60;89.70;;;;;;4976222;28;20590;-72
2023/04/14 04:36:31;;;;;;;8.37;3.90;;;4.60;89.90;;;;;;4969114;28;20513;-72
2023/04/14 04:38:57;;;;;;;10.07;4.30;;;4.50;89.90;;;;;;4977728;28;20519;-73
2023/04/14 04:41:24;;;;;;;8.40;3.63;;;4.50;90.10;;;;;;4973888;28;20455;-72
2023/04/14 04:43:50;;;;;;;9.90;4.03;;;4.50;90.20;;;;;;4973523;28;20427;-72
2023/04/14 04:46:29;;;;;;;10.57;3.97;;;4.60;90.40;;;;;;4968371;28;20528;-73
2023/04/14 04:48:56;;;;;;;12.10;4.10;;;4.60;90.50;;;;;;4973834;28;20194;-73
2023/04/14 04:51:21;;;;;;;14.60;4.23;;;4.60;90.50;;;;;;4973905;28;20431;-73
2023/04/14 04:53:47;;;;;;;10.83;4.07;;;4.60;90.60;;;;;;4977992;28;20423;-73
2023/04/14 04:56:12;;;;;;;9.47;4.40;;;4.60;90.50;;;;;;4969526;28;20215;-71
2023/04/14 04:58:38;;;;;;;11.60;3.67;;;4.60;90.40;;;;;;4981838;28;20186;-72
2023/04/14 05:01:08;;;;;;;13.00;4.03;;;4.60;90.50;;;;;;4991056;28;20262;-73
2023/04/14 05:03:33;;;;;;;10.57;3.80;;;4.60;90.50;;;;;;4984320;28;20175;-72
2023/04/14 05:05:59;;;;;;;7.40;3.57;;;4.60;90.40;;;;;;4980706;28;20529;-72
2023/04/14 05:08:24;;;;;;;13.93;4.07;;;4.60;90.20;;;;;;4975231;28;20183;-71
2023/04/14 05:10:50;;;;;;;9.50;3.60;;;4.60;90.00;;;;;;4984645;28;20227;-72
2023/04/14 05:13:15;;;;;;;9.03;3.37;;;4.60;90.00;;;;;;4981639;28;20194;-72
2023/04/14 05:15:41;;;;;;;10.43;3.70;;;4.60;89.90;;;;;;4981184;28;20245;-71
2023/04/14 05:18:07;;;;;;;7.73;3.90;;;4.60;89.50;;;;;;4985360;28;20179;-71
2023/04/14 05:20:32;;;;;;;9.50;3.23;;;4.70;89.50;;;;;;4987406;28;20666;-72
2023/04/14 05:22:58;;;;;;;8.50;3.30;;;4.70;89.50;;;;;;4985852;28;20191;-70
2023/04/14 05:25:23;;;;;;;7.03;4.30;;;4.80;89.60;;;;;;4982075;28;20206;-72
2023/04/14 05:27:49;;;;;;;8.90;3.70;;;4.80;89.50;;;;;;4983370;28;20242;-72
2023/04/14 05:30:15;;;;;;;9.33;5.00;;;4.90;89.20;;;;;;4983732;28;20210;-71
2023/04/14 05:32:40;;;;;;;13.00;4.20;;;4.90;89.00;;;;;;4989393;28;20186;-71
2023/04/14 05:35:07;;;;;;;9.10;4.60;;;4.90;89.20;;;;;;4982123;28;20234;-71
2023/04/14 05:37:32;;;;;;;12.33;4.77;;;4.90;89.20;;;;;;4991407;28;20207;-71
2023/04/14 05:39:58;;;;;;;12.87;4.37;;;5.00;89.20;;;;;;4992267;28;20430;-70
2023/04/14 05:42:24;;;;;;;12.53;4.57;;;5.10;89.00;;;;;;4987885;28;20519;-72
2023/04/14 05:44:49;;;;;;;8.93;4.10;;;5.10;88.70;;;;;;4989039;28;20194;-72
2023/04/14 05:47:15;;;;;;;5.63;3.70;;;5.10;88.40;;;;;;4986923;28;20202;-70
2023/04/14 05:49:40;;;;;;;9.03;4.30;;;5.20;88.30;;;;;;4989532;28;20191;-72
2023/04/14 05:52:06;;;;;;;6.77;3.63;;;5.20;88.00;;;;;;4980303;28;20269;-72
2023/04/14 05:54:31;;;;;;;10.50;4.40;;;5.20;87.70;;;;;;4979403;28;20217;-72
2023/04/14 05:56:57;;;;;;;10.23;4.30;;;5.30;87.40;;;;;;4976089;28;20218;-71
2023/04/14 05:59:23;;;;;;;11.83;4.40;;;5.30;87.40;;;;;;4980636;28;20201;-74
2023/04/14 06:01:48;;;;;;;11.20;4.10;;;5.30;87.60;;;;;;4977585;28;20319;-73
2023/04/14 06:04:14;;;;;;;8.93;4.47;;;5.30;87.70;;;;;;4977460;28;20246;-72
2023/04/14 06:06:40;;;;;;;10.07;4.30;;;5.30;87.70;;;;;;4972402;28;20214;-72
2023/04/14 06:09:05;;;;;;;7.53;3.50;;;5.40;87.80;;;;;;4976003;28;20454;-71
2023/04/14 06:11:31;;;;;;;8.97;3.97;;;5.50;87.80;;;;;;4974331;28;20665;-72
2023/04/14 06:13:57;;;;;;;11.27;4.40;;;5.60;87.60;;;;;;4974587;28;20210;-72
2023/04/14 06:16:23;;;;;;;10.77;4.37;;;5.70;87.40;;;;;;4971165;28;20214;-72
2023/04/14 06:18:48;;;;;;;11.60;4.50;;;5.80;87.00;;;;;;4974620;28;20591;-72
2023/04/14 06:21:14;;;;;;;8.10;4.27;;;5.80;86.80;;;;;;4981252;28;20191;-72
2023/04/14 06:23:40;;;;;;;6.90;3.77;;;5.80;86.80;;;;;;4971707;28;20206;-71
2023/04/14 06:26:05;;;;;;;9.30;4.37;;;5.90;86.60;;;;;;4970018;28;20262;-73
2023/04/14 06:28:31;;;;;;;9.70;4.57;;;6.00;86.20;;;;;;4971822;28;20342;-73
2023/04/14 06:30:56;;;;;;;7.23;4.30;;;6.10;85.90;;;;;;4973602;28;20195;-71
2023/04/14 06:33:22;;;;;;;19.60;5.30;;;6.20;85.70;;;;;;4985630;28;20206;-72
2023/04/14 06:35:48;;;;;;;10.33;4.43;;;6.30;84.90;;;;;;4973490;28;20207;-72
2023/04/14 06:38:14;;;;;;;13.20;4.63;;;6.30;84.60;;;;;;4985684;28;20499;-71
2023/04/14 06:40:40;;;;;;;11.20;4.30;;;6.40;84.60;;;;;;4979967;28;20207;-71
2023/04/14 06:43:09;;;;;;;7.93;4.30;;;6.50;84.30;;;;;;4973260;28;20197;-72
2023/04/14 06:45:35;;;;;;;7.30;3.30;;;6.60;83.60;;;;;;4974629;28;20252;-71
2023/04/14 06:48:01;;;;;;;10.47;3.53;;;6.70;82.80;;;;;;4972977;28;20510;-71
2023/04/14 06:50:26;;;;;;;9.77;5.03;;;6.80;82.10;;;;;;4970318;28;20198;-72
2023/04/14 06:52:52;;;;;;;7.87;3.60;;;6.90;80.50;;;;;;4971878;28;20194;-72
2023/04/14 06:55:17;;;;;;;9.70;3.97;;;7.00;79.90;;;;;;4970602;28;20856;-71
2023/04/14 06:57:43;;;;;;;5.30;3.47;;;7.00;79.70;;;;;;4974631;28;20646;-73
2023/04/14 07:00:09;;;;;;;7.00;4.03;;;7.20;78.90;;;;;;4980195;28;20273;-72
2023/04/14 07:02:35;;;;;;;9.40;4.23;;;7.20;78.30;;;;;;4972970;28;20189;-72
2023/04/14 07:05:01;;;;;;;10.20;3.77;;;7.30;78.10;;;;;;4968747;28;20447;-73
2023/04/14 07:07:27;;;;;;;11.27;4.03;;;7.30;78.00;;;;;;4970381;28;20579;-72
2023/04/14 07:09:52;;;;;;;10.80;3.70;;;7.40;77.70;;;;;;4975998;28;20423;-72
2023/04/14 07:12:18;;;;;;;5.80;3.70;;;7.50;77.40;;;;;;4972923;28;20301;-71
2023/04/14 07:14:50;;;;;;;11.87;4.30;;;7.70;77.00;;;;;;4970869;28;20674;-73
2023/04/14 07:17:17;;;;;;;12.07;4.23;;;7.70;77.00;;;;;;4971834;28;20206;-71
2023/04/14 07:19:43;;;;;;;7.27;4.23;;;7.80;76.80;;;;;;4971917;28;20426;-72
2023/04/14 07:22:08;;;;;;;9.10;4.40;;;7.90;76.80;;;;;;4973685;28;20442;-71
2023/04/14 07:24:34;;;;;;;13.37;5.83;;;7.90;76.50;;;;;;4970802;28;20419;-72
2023/04/14 07:26:59;;;;;;;16.50;4.60;;;7.90;75.50;;;;;;4969176;28;20205;-72
2023/04/14 07:29:26;;;;;;;9.93;3.80;;;8.00;75.80;;;;;;4973650;28;20226;-71
2023/04/14 07:31:51;;;;;;;8.97;3.97;;;8.00;76.20;;;;;;4968959;28;20222;-71
2023/04/14 07:34:18;;;;;;;8.27;4.20;;;8.10;76.10;;;;;;4974759;28;20474;-72
2023/04/14 07:36:44;;;;;;;10.23;3.70;;;8.10;76.20;;;;;;4966639;28;20666;-71
2023/04/14 07:39:10;;;;;;;9.37;3.90;;;8.30;75.80;;;;;;4971135;28;20443;-73
2023/04/14 07:41:36;;;;;;;10.20;4.10;;;8.40;75.10;;;;;;4972093;28;20427;-72
2023/04/14 07:44:01;;;;;;;7.10;3.43;;;8.40;73.90;;;;;;4971330;28;20266;-73
2023/04/14 07:46:27;;;;;;;5.40;3.97;;;8.50;73.60;;;;;;4971058;28;20548;-73
2023/04/14 07:48:53;;;;;;;7.87;4.00;;;8.50;73.50;;;;;;4982700;28;20582;-74
2023/04/14 07:51:19;;;;;;;7.57;3.67;;;8.60;73.50;;;;;;4970806;28;20183;-72
2023/04/14 07:53:45;;;;;;;7.60;2.90;;;8.70;73.00;;;;;;4971232;28;20300;-72
2023/04/14 07:56:11;;;;;;;12.20;3.60;;;8.70;73.00;;;;;;4968510;28;20480;-72
2023/04/14 07:58:37;;;;;;;11.67;3.90;;;8.80;72.70;;;;;;4971361;28;20207;-71
2023/04/14 08:01:03;;;;;;;10.30;3.60;;;8.80;72.90;;;;;;4974842;28;20453;-72
2023/04/14 08:03:29;;;;;;;9.93;3.80;;;8.90;72.60;;;;;;4973209;28;20219;-73
2023/04/14 08:05:56;;;;;;;9.53;3.60;;;9.00;72.60;;;;;;4971176;28;21020;-71
2023/04/14 08:08:22;;;;;;;8.77;3.70;;;9.10;72.30;;;;;;4977506;28;20506;-72
2023/04/14 08:10:48;;;;;;;11.77;4.07;;;9.20;71.80;;;;;;4978122;28;20423;-71
2023/04/14 08:13:14;;;;;;;8.40;4.13;;;9.20;71.70;;;;;;4976307;28;20566;-72
2023/04/14 08:15:39;;;;;;;16.30;4.70;;;9.30;71.80;;;;;;4972228;28;20573;-71
2023/04/14 08:18:05;;;;;;;10.80;4.50;;;9.30;72.00;;;;;;4980666;28;20180;-71
2023/04/14 08:20:31;;;;;;;13.63;4.13;;;9.40;72.10;;;;;;4980889;28;20266;-71
2023/04/14 08:22:56;;;;;;;8.83;4.30;;;9.50;72.00;;;;;;4983954;28;20575;-71
2023/04/14 08:25:22;;;;;;;17.50;5.30;;;9.50;72.00;;;;;;4972992;28;20450;-71
2023/04/14 08:27:48;;;;;;;10.00;4.13;;;9.50;71.40;;;;;;4975631;28;20237;-72
2023/04/14 08:30:14;;;;;;;12.37;3.47;;;9.60;71.00;;;;;;4979670;28;20194;-72
2023/04/14 08:32:39;;;;;;;13.23;3.63;;;9.70;69.50;;;;;;4974971;28;20217;-73
2023/04/14 08:35:05;;;;;;;12.53;3.90;;;9.70;69.90;;;;;;4973703;28;20524;-71
2023/04/14 08:37:31;;;;;;;13.83;4.30;;;9.70;69.90;;;;;;4977158;28;20199;-71
2023/04/14 08:39:56;;;;;;;11.47;3.80;;;9.90;70.20;;;;;;4980773;28;20183;-72
2023/04/14 08:42:22;;;;;;;8.60;3.73;;;9.90;70.50;;;;;;4978316;28;20205;-72
2023/04/14 08:44:48;;;;;;;8.00;4.07;;;10.10;70.70;;;;;;4980574;28;20194;-72
2023/04/14 08:47:14;;;;;;;10.70;3.67;;;10.20;70.40;;;;;;4976949;28;20557;-71
2023/04/14 08:49:44;;;;;;;7.60;4.17;;;10.30;70.40;;;;;;4975478;28;20590;-72
2023/04/14 08:52:11;;;;;;;9.63;3.40;;;10.30;70.10;;;;;;4976693;28;20435;-72
2023/04/14 08:54:40;;;;;;;7.00;3.00;;;10.30;69.10;;;;;;4976711;28;20490;-72
2023/04/14 08:57:13;;;;;;;11.93;3.80;;;10.40;69.20;;;;;;4979642;28;20542;-71
2023/04/14 08:59:41;;;;;;;6.33;2.47;;;10.50;69.20;;;;;;4977365;28;20454;-72
2023/04/14 09:02:09;;;;;;;8.37;2.80;;;10.50;68.80;;;;;;4977433;28;20417;-72
2023/04/14 09:04:36;;;;;;;6.80;2.83;;;10.70;68.80;;;;;;4975562;28;20947;-71
2023/04/14 09:07:02;;;;;;;4.43;1.90;;;10.70;67.90;;;;;;4970838;28;20461;-72
2023/04/14 09:09:29;;;;;;;12.30;2.67;;;10.60;66.70;;;;;;4974580;28;20426;-72
2023/04/14 09:11:56;;;;;;;6.50;2.27;;;10.60;67.30;;;;;;4973178;28;20993;-71
2023/04/14 09:14:23;;;;;;;6.83;2.47;;;10.50;66.70;;;;;;4973270;28;20466;-73
2023/04/14 09:16:52;;;;;;;9.60;1.97;;;10.40;65.80;;;;;;4970966;28;20470;-70
2023/04/14 09:19:20;;;;;;;5.67;2.60;;;10.50;65.70;;;;;;4972651;28;20422;-71
2023/04/14 09:21:46;;;;;;;4.70;1.93;;;10.60;65.70;;;;;;4978339;28;20798;-72
2023/04/14 09:24:11;;;;;;;12.60;2.63;;;10.80;65.10;;;;;;4981842;28;20427;-72
2023/04/14 09:26:37;;;;;;;5.30;2.00;;;10.90;65.10;;;;;;4971908;28;20473;-71
2023/04/14 09:29:03;;;;;;;4.73;2.00;;;11.10;64.10;;;;;;4975203;28;20531;-72
2023/04/14 09:31:29;;;;;;;7.17;2.63;;;11.20;64.10;;;;;;4973622;28;20537;-71
2023/04/14 09:33:56;;;;;;;7.10;2.70;;;11.10;64.50;;;;;;4972151;28;20183;-72
2023/04/14 09:36:23;;;;;;;7.20;2.23;;;11.10;63.50;;;;;;4975231;28;20454;-72
2023/04/14 09:38:50;;;;;;;7.53;2.30;;;11.10;61.90;;;;;;4977753;28;21056;-71
2023/04/14 09:41:21;;;;;;;11.27;2.57;;;11.00;63.80;;;;;;4976606;28;20422;-72
2023/04/14 09:43:47;;;;;;;4.20;2.20;;;11.20;63.50;;;;;;4974561;28;20419;-72
2023/04/14 09:46:14;;;;;;;7.37;2.00;;;11.30;63.90;;;;;;4972442;28;21000;-72
2023/04/14 09:49:09;;;;;;;4.50;1.87;;;11.40;63.50;;;;;;4977800;28;20440;-73
2023/04/14 09:51:35;;;;;;;7.53;2.27;;;11.60;62.60;;;;;;4908958;29;20879;-71
2023/04/14 09:54:02;;;;;;;6.10;2.10;;;11.70;60.60;;;;;;4909098;29;20445;-72
2023/04/14 09:56:27;;;;;;;6.90;2.10;;;11.50;59.60;;;;;;4909613;29;20224;-71
2023/04/14 09:59:00;;;;;;;5.27;2.27;;;11.40;58.90;;;;;;4900441;29;20784;-72
2023/04/14 10:01:30;;;;;;;5.83;2.00;;;11.50;59.30;;;;;;4906991;29;20216;-72
2023/04/14 10:03:56;;;;;;;9.07;2.40;;;11.60;59.30;;;;;;4906027;29;20434;-72
2023/04/14 10:06:23;;;;;;;12.00;2.10;;;11.60;59.70;;;;;;4905030;29;20461;-71
2023/04/14 10:08:53;;;;;;;6.70;2.07;;;11.70;57.00;;;;;;4909433;29;20198;-71
2023/04/14 10:11:26;;;;;;;6.43;2.10;;;11.50;57.30;;;;;;4909709;29;20425;-72
2023/04/14 10:13:56;;;;;;;5.47;2.10;;;11.40;60.00;;;;;;4906531;29;20416;-72
2023/04/14 10:16:23;;;;;;;6.80;2.53;;;11.30;59.30;;;;;;4894044;29;20468;-72
2023/04/14 10:18:50;;;;;;;7.50;2.27;;;11.50;59.50;;;;;;4922021;29;20754;-72
2023/04/14 10:21:16;;;;;;;6.13;2.17;;;11.70;58.00;;;;;;4917313;29;20474;-72
2023/04/14 10:23:42;;;;;;;4.30;2.40;;;11.60;58.90;;;;;;4911257;29;20484;-73
2023/04/14 10:26:10;;;;;;;5.30;2.50;;;11.70;59.10;;;;;;4905549;29;20215;-70
2023/04/14 10:28:39;;;;;;;4.60;1.93;;;11.80;58.20;;;;;;4955119;28;20427;-71
2023/04/14 10:31:10;;;;;;;5.30;2.10;;;12.10;57.30;;;;;;4972516;28;20419;-71
2023/04/14 10:33:40;;;;;;;6.27;2.17;;;12.20;57.70;;;;;;4972119;28;20434;-71
2023/04/14 10:36:07;;;;;;;5.57;2.73;;;12.40;55.40;;;;;;4972491;28;20482;-71
2023/04/14 10:38:38;;;;;;;5.00;2.23;;;12.50;54.90;;;;;;4973552;28;20445;-72
2023/04/14 10:41:04;;;;;;;6.13;2.33;;;12.50;55.40;;;;;;4972014;28;20446;-72
2023/04/14 10:43:30;;;;;;;9.77;2.40;;;12.50;54.00;;;;;;4972335;28;20506;-72
2023/04/14 10:45:57;;;;;;;5.83;2.30;;;12.60;54.00;;;;;;4971670;28;20473;-74
2023/04/14 10:48:31;;;;;;;5.20;2.33;;;13.00;52.80;;;;;;4972859;28;20211;-71
2023/04/14 10:51:02;;;;;;;5.30;1.90;;;13.50;51.60;;;;;;4968962;28;20414;-71
2023/04/14 10:53:51;;;;;;;6.50;1.90;;;14.00;49.90;;;;;;4972636;28;20419;-71
2023/04/14 10:56:20;;;;;;;6.33;2.57;;;14.10;49.10;;;;;;4977557;28;20462;-72
2023/04/14 10:58:57;;;;;;;7.20;2.50;;;14.30;49.70;;;;;;4978612;28;20513;-72
2023/04/14 11:01:31;;;;;;;12.30;2.90;;;14.80;48.70;;;;;;4968470;28;20422;-71
2023/04/14 11:04:09;;;;;;;3.50;1.90;;;14.90;51.00;;;;;;4972110;28;20414;-72
2023/04/14 11:06:53;;;;;;;5.93;2.27;;;14.60;52.10;;;;;;4973917;28;20531;-72
2023/04/14 11:09:35;;;;;;;5.97;2.20;;;14.80;52.60;;;;;;4977933;28;20437;-72
2023/04/14 11:12:20;;;;;;;5.83;2.43;;;15.30;51.20;;;;;;4967763;28;20425;-70
2023/04/14 11:14:46;;;;;;;7.00;2.57;;;15.70;49.80;;;;;;4977940;28;20493;-72
2023/04/14 11:17:19;;;;;;;4.67;2.10;;;15.80;44.60;;;;;;4981560;28;21084;-71
2023/04/14 11:19:44;;;;;;;5.83;2.07;;;15.70;44.60;;;;;;4973577;28;20268;-72
2023/04/14 11:22:10;;;;;;;6.40;2.23;;;15.50;45.70;;;;;;4977916;28;20452;-71
2023/04/14 11:24:36;;;;;;;7.00;2.30;;;15.50;46.50;;;;;;4975396;28;20197;-71
2023/04/14 11:27:01;;;;;;;4.20;2.10;;;15.40;48.50;;;;;;4969525;28;20207;-72
2023/04/14 11:29:27;;;;;;;4.50;1.77;;;15.50;47.10;;;;;;4972341;28;20186;-72
2023/04/14 11:32:05;;;;;;;7.10;2.10;;;15.60;46.30;;;;;;4971874;28;20269;-72
2023/04/14 11:34:32;;;;;;;9.77;2.20;;;15.50;44.60;;;;;;4973372;28;20205;-72
2023/04/14 11:37:00;;;;;;;7.90;2.80;;;15.50;45.30;;;;;;4975746;28;20462;-72
2023/04/14 11:39:27;;;;;;;7.00;2.17;;;15.50;45.90;;;;;;4980059;28;20430;-71
2023/04/14 11:41:54;;;;;;;4.40;1.80;;;15.40;46.20;;;;;;4984583;28;20416;-71
2023/04/14 11:44:21;;;;;;;5.97;2.17;;;15.00;47.10;;;;;;4982656;28;20428;-73
2023/04/14 11:46:46;;;;;;;7.73;1.97;;;14.50;47.90;;;;;;4978100;28;20497;-72
2023/04/14 11:49:12;;;;;;;6.60;2.23;;;14.00;48.20;;;;;;4979786;28;20808;-71
2023/04/14 11:51:38;;;;;;;9.03;2.20;;;14.10;48.90;;;;;;4974070;28;20281;-72
2023/04/14 11:54:03;;;;;;;7.77;1.80;;;13.90;49.80;;;;;;4975969;28;20270;-72
2023/04/14 11:56:31;;;;;;;7.10;2.53;;;13.90;48.70;;;;;;4973418;28;20294;-72
2023/04/14 11:59:01;;;;;;;7.07;3.03;;;14.10;49.30;;;;;;4975347;28;20462;-72
2023/04/14 12:01:28;;;;;;;6.60;2.23;;;14.40;48.10;;;;;;4981474;28;20420;-72
2023/04/14 12:03:54;;;;;;;5.17;2.07;;;14.60;47.70;;;;;;4988840;28;20422;-72
2023/04/14 12:06:20;;;;;;;6.47;3.00;;;14.70;46.90;;;;;;4981810;28;20461;-72
2023/04/14 12:08:55;;;;;;;4.47;2.03;;;14.60;46.60;;;;;;4982424;28;20444;-72
2023/04/14 12:11:21;;;;;;;6.73;2.10;;;14.50;47.70;;;;;;4972855;28;20858;-72
2023/04/14 12:13:48;;;;;;;4.50;2.10;;;14.40;47.00;;;;;;4980071;28;20497;-72
2023/04/14 12:16:16;;;;;;;2.93;1.60;;;14.20;47.50;;;;;;4977303;28;20478;-71
2023/04/14 12:18:42;;;;;;;12.33;2.00;;;14.10;46.90;;;;;;4982461;28;20465;-72
2023/04/14 12:21:08;;;;;;;4.33;1.70;;;13.80;47.10;;;;;;4978463;28;20446;-72
2023/04/14 12:23:35;;;;;;;6.40;2.00;;;13.70;47.90;;;;;;4975259;28;20427;-72
2023/04/14 12:26:01;;;;;;;4.90;2.30;;;13.60;48.20;;;;;;4977164;28;20549;-72
2023/04/14 12:28:28;;;;;;;4.10;1.90;;;13.70;48.50;;;;;;4979309;28;20513;-70
2023/04/14 12:31:02;;;;;;;7.83;2.30;;;13.70;47.90;;;;;;4973376;28;20189;-71
2023/04/14 12:33:29;;;;;;;5.33;1.83;;;13.90;48.10;;;;;;4979132;28;21096;-72
2023/04/14 12:36:09;;;;;;;5.77;2.00;;;14.00;47.40;;;;;;4971124;28;20547;-72
2023/04/14 12:38:34;;;;;;;5.27;1.93;;;14.20;46.60;;;;;;4973577;28;20442;-73
2023/04/14 12:41:00;;;;;;;4.53;1.60;;;14.20;46.60;;;;;;4977739;28;20448;-72
2023/04/14 12:43:35;;;;;;;3.50;1.90;;;14.50;44.70;;;;;;4980346;28;21356;-72
2023/04/14 12:46:06;;;;;;;6.10;1.80;;;14.70;43.50;;;;;;4970305;28;20213;-72
2023/04/14 12:48:45;;;;;;;4.97;1.50;;;15.00;43.10;;;;;;4975046;28;20863;-71
2023/04/14 12:51:18;;;;;;;8.50;1.77;;;15.10;40.70;;;;;;4974948;28;20511;-73
2023/04/14 12:53:45;;;;;;;4.43;1.80;;;15.40;40.40;;;;;;4972678;28;21006;-72